createdAt,value
2023-02-09T08:43:51.601Z,49.02
2023-02-09T08:44:53.078Z,49.18
2023-02-09T08:45:54.646Z,49.64
2023-02-09T08:46:56.228Z,47.71
2023-02-09T08:47:57.660Z,48.08
2023-02-09T08:48:59.068Z,48.94
2023-02-09T08:50:00.519Z,49.52
2023-02-09T08:51:02.496Z,49.11
2023-02-09T08:52:04.165Z,48.33
2023-02-09T08:53:06.591Z,47.99
2023-02-09T08:54:08.094Z,47.16
2023-02-09T08:55:09.514Z,48.02
2023-02-09T08:56:10.924Z,45.37
2023-02-09T08:57:12.301Z,44.93
2023-02-09T08:58:13.636Z,43.96
2023-02-09T08:59:15.037Z,44.40
2023-02-09T09:00:16.908Z,44.02
2023-02-09T09:01:18.449Z,43.83
2023-02-09T09:02:19.822Z,43.47
2023-02-09T09:03:21.371Z,43.42
2023-02-09T09:04:22.825Z,43.39
2023-02-09T09:05:24.322Z,42.49
2023-02-09T09:06:26.980Z,42.62
2023-02-09T09:07:28.387Z,42.46
2023-02-09T09:08:30.993Z,42.70
2023-02-09T09:09:32.417Z,42.24
2023-02-09T09:10:33.890Z,42.56
2023-02-09T09:11:35.294Z,43.28
2023-02-09T09:12:37.151Z,43.00
2023-02-09T09:13:42.123Z,42.55
2023-02-09T09:14:44.514Z,42.46
2023-02-09T09:15:46.586Z,41.31
2023-02-09T09:16:48.149Z,41.40
2023-02-09T09:17:49.642Z,41.60
2023-02-09T09:18:51.253Z,41.16
2023-02-09T09:19:55.804Z,41.72
2023-02-09T09:20:57.349Z,41.26
2023-02-09T09:22:00.268Z,42.14
2023-02-09T09:23:02.066Z,41.74
2023-02-09T09:24:03.875Z,40.90
2023-02-09T09:25:06.204Z,40.94
2023-02-09T09:26:07.731Z,40.68
2023-02-09T09:27:10.626Z,40.68
2023-02-09T09:28:12.141Z,40.84
2023-02-09T09:29:13.593Z,41.06
2023-02-09T09:30:15.013Z,41.53
2023-02-09T09:31:18.246Z,40.84
2023-02-09T09:32:24.624Z,40.52
2023-02-09T09:33:26.203Z,38.94
2023-02-09T09:34:27.733Z,38.68
2023-02-09T09:35:29.739Z,39.48
2023-02-09T09:36:31.457Z,38.19
2023-02-09T09:37:32.920Z,38.27
2023-02-09T09:38:35.628Z,40.15
2023-02-09T09:39:37.025Z,39.20
2023-02-09T09:40:42.763Z,39.55
2023-02-09T09:41:47.374Z,39.42
2023-02-09T09:42:52.706Z,40.55
2023-02-09T09:43:55.229Z,40.26
2023-02-09T09:44:57.079Z,39.68
2023-02-09T09:45:59.139Z,38.75
2023-02-09T09:47:07.228Z,39.78
2023-02-09T09:48:22.808Z,40.04
2023-02-09T09:49:27.512Z,38.99
2023-02-09T09:50:39.063Z,40.12
2023-02-09T09:51:44.426Z,39.37
2023-02-09T09:52:53.512Z,38.86
2023-02-09T09:53:57.816Z,39.08
2023-02-09T09:55:01.734Z,38.28
2023-02-09T09:56:06.640Z,37.32
2023-02-09T09:57:24.171Z,37.76
2023-02-09T09:58:27.949Z,39.89
2023-02-09T09:59:35.087Z,40.11
2023-02-09T10:00:41.407Z,39.66
2023-02-09T10:01:43.001Z,39.32
2023-02-09T10:02:45.071Z,39.11
2023-02-09T10:03:47.006Z,37.92
2023-02-09T10:04:48.583Z,38.00
2023-02-09T10:05:53.747Z,39.60
2023-02-09T10:07:01.814Z,41.33
2023-02-09T10:08:21.484Z,39.98
2023-02-09T10:09:34.801Z,39.88
2023-02-09T10:10:54.964Z,39.26
2023-02-09T10:12:13.636Z,38.80
2023-02-09T10:13:24.753Z,38.57
2023-02-09T10:14:26.197Z,37.70
2023-02-09T10:15:29.059Z,37.15
2023-02-09T10:16:39.966Z,38.11
2023-02-09T10:17:41.471Z,38.85
2023-02-09T10:18:43.322Z,39.51
2023-02-09T10:20:00.684Z,37.95
2023-02-09T10:21:08.396Z,39.66
2023-02-09T10:22:13.597Z,39.59
2023-02-09T10:23:18.975Z,38.73
2023-02-09T10:24:22.187Z,38.27
2023-02-09T10:25:49.207Z,38.63
2023-02-09T10:27:28.054Z,38.81
2023-02-09T10:28:34.240Z,37.96
2023-02-09T10:29:36.513Z,37.57
2023-02-09T10:30:38.734Z,37.92
2023-02-09T10:31:43.137Z,38.09
2023-02-09T10:32:44.669Z,37.86
2023-02-09T10:33:50.417Z,37.61
2023-02-09T10:34:54.174Z,36.94
2023-02-09T10:36:03.245Z,36.80
2023-02-09T10:37:15.554Z,37.46
2023-02-09T10:38:19.852Z,37.04
2023-02-09T10:39:28.374Z,35.50
2023-02-09T10:40:33.014Z,34.77
2023-02-09T10:41:35.240Z,35.91
2023-02-09T10:42:39.783Z,36.49
2023-02-09T10:43:41.622Z,37.12
2023-02-09T10:44:49.717Z,35.77
2023-02-09T10:46:03.608Z,34.68
2023-02-09T10:47:19.186Z,34.68
2023-02-09T10:48:23.087Z,30.84
2023-02-09T10:49:35.313Z,34.06
2023-02-09T10:50:56.685Z,34.53
2023-02-09T10:52:06.659Z,33.50
2023-02-09T10:53:33.779Z,34.91
2023-02-09T10:54:35.334Z,35.00
2023-02-09T10:55:39.921Z,35.61
2023-02-09T10:56:41.285Z,35.55
2023-02-09T10:57:42.730Z,34.76
2023-02-09T10:59:00.131Z,34.92
2023-02-09T11:00:16.721Z,34.11
2023-02-09T11:01:31.051Z,34.03
2023-02-09T11:02:38.089Z,33.92
2023-02-09T11:03:59.871Z,35.67
2023-02-09T11:05:01.927Z,36.52
2023-02-09T11:06:18.435Z,35.62
2023-02-09T11:07:21.657Z,35.27
2023-02-09T11:08:26.945Z,34.46
2023-02-09T11:09:33.326Z,34.78
2023-02-09T11:10:42.064Z,34.64
2023-02-09T11:11:44.885Z,34.16
2023-02-09T11:12:46.664Z,34.44
2023-02-09T11:13:48.060Z,36.16
2023-02-09T11:14:49.610Z,35.48
2023-02-09T11:16:34.565Z,35.14
2023-02-09T11:17:45.129Z,34.41
2023-02-09T11:18:57.049Z,35.05
2023-02-09T11:20:32.160Z,35.62
2023-02-09T11:21:55.467Z,35.47
2023-02-09T11:23:05.945Z,36.43
2023-02-09T11:24:18.420Z,35.76
2023-02-09T11:25:24.875Z,35.39
2023-02-09T11:26:37.751Z,34.21
2023-02-09T11:28:03.220Z,33.86
2023-02-09T11:29:20.319Z,33.66
2023-02-09T11:30:45.586Z,33.39
2023-02-09T11:32:02.688Z,32.23
2023-02-09T11:33:09.946Z,32.96
2023-02-09T11:34:54.025Z,33.87
2023-02-09T11:36:39.851Z,34.53
2023-02-09T11:37:59.329Z,34.95
2023-02-09T11:39:06.247Z,34.37
2023-02-09T11:40:19.866Z,33.65
2023-02-09T11:41:48.588Z,34.11
2023-02-09T11:43:22.747Z,34.50
2023-02-09T11:44:32.937Z,33.97
2023-02-09T11:45:47.192Z,33.80
2023-02-09T11:46:53.246Z,33.05
2023-02-09T11:48:00.509Z,34.15
2023-02-09T11:49:09.723Z,34.45
2023-02-09T11:50:22.376Z,34.59
2023-02-09T11:51:26.709Z,35.00
2023-02-09T11:52:36.406Z,35.08
2023-02-09T11:54:07.293Z,35.57
2023-02-09T11:55:35.990Z,34.31
2023-02-09T11:56:50.225Z,34.48
2023-02-09T11:57:58.407Z,34.63
2023-02-09T11:59:18.798Z,34.11
2023-02-09T12:00:26.386Z,35.06
2023-02-09T12:01:30.702Z,35.33
2023-02-09T12:02:59.057Z,35.52
2023-02-09T12:04:17.873Z,35.57
2023-02-09T12:05:22.337Z,34.88
2023-02-09T12:06:24.808Z,35.68
2023-02-09T12:07:44.681Z,34.56
2023-02-09T12:09:06.530Z,35.30
2023-02-09T12:10:32.351Z,34.88
2023-02-09T12:11:46.112Z,34.21
2023-02-09T12:12:50.368Z,35.26
2023-02-09T12:13:58.004Z,35.09
2023-02-09T12:15:12.519Z,35.48
2023-02-09T12:16:18.504Z,36.20
2023-02-09T12:17:38.796Z,36.00
2023-02-09T12:18:42.272Z,35.23
2023-02-09T12:19:46.313Z,35.34
2023-02-09T12:20:58.580Z,36.20
2023-02-09T12:22:35.291Z,35.62
2023-02-09T12:23:44.430Z,35.29
2023-02-09T12:25:04.315Z,35.81
2023-02-09T12:26:11.709Z,35.72
2023-02-09T12:27:26.499Z,36.14
2023-02-09T12:28:28.149Z,36.28
2023-02-09T12:29:40.836Z,37.09
2023-02-09T12:30:42.841Z,37.37
2023-02-09T12:32:03.406Z,36.51
2023-02-09T12:33:19.699Z,35.20
2023-02-09T12:34:27.625Z,35.35
2023-02-09T12:35:39.694Z,36.04
2023-02-09T12:37:19.277Z,35.08
2023-02-09T12:38:21.355Z,35.26
2023-02-09T12:39:25.696Z,35.09
2023-02-09T12:40:36.913Z,34.92
2023-02-09T12:41:40.905Z,34.97
2023-02-09T12:42:54.354Z,35.13
2023-02-09T12:44:25.108Z,35.01
2023-02-09T12:45:36.853Z,35.50
2023-02-09T12:46:44.406Z,35.42
2023-02-09T12:47:56.772Z,35.24
2023-02-09T12:49:00.981Z,35.81
2023-02-09T12:50:05.260Z,35.67
2023-02-09T12:51:45.207Z,35.37
2023-02-09T12:53:23.793Z,36.42
2023-02-09T12:54:46.924Z,37.81
2023-02-09T12:56:09.201Z,37.33
2023-02-09T12:57:16.396Z,36.38
2023-02-09T12:58:45.200Z,35.94
2023-02-09T12:59:49.635Z,35.93
2023-02-09T13:00:56.040Z,35.20
2023-02-09T13:02:12.072Z,35.52
2023-02-09T13:03:16.654Z,36.47
2023-02-09T13:04:19.398Z,36.68
2023-02-09T13:05:28.839Z,36.59
2023-02-09T13:06:51.767Z,37.68
2023-02-09T13:08:08.317Z,36.85
2023-02-09T13:09:19.182Z,35.37
2023-02-09T13:10:36.216Z,36.16
2023-02-09T13:11:49.206Z,35.61
2023-02-09T13:12:56.273Z,35.64
2023-02-09T13:14:04.083Z,35.17
2023-02-09T13:15:13.147Z,35.12
2023-02-09T13:16:29.872Z,34.89
2023-02-09T13:17:40.200Z,34.31
2023-02-09T13:18:48.473Z,35.35
2023-02-09T13:20:13.230Z,35.69
2023-02-09T13:21:29.432Z,35.27
2023-02-09T13:22:52.477Z,35.55
2023-02-09T13:23:56.911Z,35.68
2023-02-09T13:25:14.087Z,35.99
2023-02-09T13:26:22.502Z,35.92
2023-02-09T13:27:25.723Z,35.20
2023-02-09T13:28:27.183Z,34.82
2023-02-09T13:29:32.912Z,34.76
2023-02-09T13:30:34.691Z,34.83
2023-02-09T13:31:39.733Z,36.09
2023-02-09T13:33:02.664Z,35.39
2023-02-09T13:34:15.339Z,35.01
2023-02-09T13:35:27.392Z,34.64
2023-02-09T13:36:45.656Z,34.60
2023-02-09T13:37:51.300Z,34.95
2023-02-09T13:38:53.376Z,34.85
2023-02-09T13:40:01.112Z,34.92
2023-02-09T13:41:06.269Z,34.65
2023-02-09T13:42:22.379Z,34.56
2023-02-09T13:43:39.376Z,34.44
2023-02-09T13:44:45.302Z,34.78
2023-02-09T13:45:52.437Z,34.72
2023-02-09T13:47:01.790Z,35.14
2023-02-09T13:48:13.294Z,35.93
2023-02-09T13:49:21.853Z,35.99
2023-02-09T13:50:25.290Z,36.03
2023-02-09T13:51:26.686Z,36.24
2023-02-09T13:52:38.771Z,36.75
2023-02-09T13:53:40.612Z,37.18
2023-02-09T13:54:43.510Z,37.45
2023-02-09T13:55:48.274Z,37.40
2023-02-09T13:56:49.870Z,36.43
2023-02-09T13:58:02.279Z,36.64
2023-02-09T13:59:03.908Z,36.35
2023-02-09T14:00:13.363Z,36.23
2023-02-09T14:01:17.929Z,36.22
2023-02-09T14:02:26.616Z,36.16
2023-02-09T14:03:35.815Z,35.20
2023-02-09T14:04:37.459Z,36.58
2023-02-09T14:06:02.814Z,35.81
2023-02-09T14:07:10.891Z,35.73
2023-02-09T14:08:15.875Z,37.24
2023-02-09T14:09:30.645Z,36.97
2023-02-09T14:10:34.752Z,35.71
2023-02-09T14:11:43.383Z,37.04
2023-02-09T14:13:15.454Z,36.37
2023-02-09T14:14:25.937Z,37.36
2023-02-09T14:15:56.856Z,37.17
2023-02-09T14:17:27.618Z,35.92
2023-02-09T14:18:47.661Z,35.94
2023-02-09T14:19:49.344Z,36.71
2023-02-09T14:21:02.532Z,36.40
2023-02-09T14:22:04.143Z,35.90
2023-02-09T14:23:15.439Z,35.46
2023-02-09T14:24:19.881Z,36.79
2023-02-09T14:25:28.364Z,36.56
2023-02-09T14:26:44.169Z,36.09
2023-02-09T14:27:47.228Z,37.02
2023-02-09T14:28:53.171Z,36.71
2023-02-09T14:29:55.319Z,36.48
2023-02-09T14:30:57.955Z,36.68
2023-02-09T14:32:01.972Z,35.41
2023-02-09T14:33:03.932Z,34.73
2023-02-09T14:34:05.281Z,35.14
2023-02-09T14:35:41.173Z,36.85
2023-02-09T14:36:52.376Z,36.23
2023-02-09T14:37:59.356Z,36.65
2023-02-09T14:39:20.826Z,35.39
2023-02-09T14:40:27.126Z,34.78
2023-02-09T14:41:31.695Z,35.00
2023-02-09T14:42:34.710Z,34.61
2023-02-09T14:43:36.082Z,34.01
2023-02-09T14:44:50.863Z,34.65
2023-02-09T14:46:01.004Z,35.19
2023-02-09T14:47:02.434Z,35.23
2023-02-09T14:48:24.757Z,34.96
2023-02-09T14:49:27.450Z,35.06
2023-02-09T14:50:28.896Z,35.90
2023-02-09T14:51:30.543Z,36.03
2023-02-09T14:52:33.193Z,36.09
2023-02-09T14:53:34.726Z,36.03
2023-02-09T14:54:45.935Z,35.20
2023-02-09T14:55:47.970Z,36.11
2023-02-09T14:56:50.502Z,37.41
2023-02-09T14:57:51.992Z,37.78
2023-02-09T14:58:53.846Z,38.15
2023-02-09T14:59:56.222Z,37.27
2023-02-09T15:01:00.628Z,37.73
2023-02-09T15:02:02.084Z,37.28
2023-02-09T15:03:03.643Z,37.63
2023-02-09T15:04:05.206Z,37.11
2023-02-09T15:05:07.081Z,36.82
2023-02-09T15:06:08.700Z,36.52
2023-02-09T15:07:14.765Z,36.79
2023-02-09T15:08:19.950Z,38.36
2023-02-09T15:09:29.586Z,37.76
2023-02-09T15:10:34.800Z,38.00
2023-02-09T15:11:54.987Z,38.08
2023-02-09T15:12:57.211Z,37.82
2023-02-09T15:14:06.410Z,37.72
2023-02-09T15:15:13.987Z,37.95
2023-02-09T15:16:16.805Z,38.42
2023-02-09T15:17:21.559Z,38.39
2023-02-09T15:18:26.352Z,38.71
2023-02-09T15:19:28.118Z,38.55
2023-02-09T15:20:31.330Z,38.09
2023-02-09T15:21:32.730Z,38.65
2023-02-09T15:22:34.206Z,38.28
2023-02-09T15:23:35.568Z,38.93
2023-02-09T15:24:36.903Z,38.40
2023-02-09T15:25:40.070Z,39.14
2023-02-09T15:26:41.589Z,39.45
2023-02-09T15:27:52.461Z,39.97
2023-02-09T15:28:54.146Z,39.63
2023-02-09T15:29:57.986Z,39.70
2023-02-09T15:31:00.617Z,39.71
2023-02-09T15:32:02.013Z,39.95
2023-02-09T15:33:05.828Z,39.92
2023-02-09T15:34:07.822Z,40.09
2023-02-09T15:35:13.571Z,40.98
2023-02-09T15:36:19.417Z,40.33
2023-02-09T15:37:32.319Z,40.08
2023-02-09T15:38:33.878Z,39.51
2023-02-09T15:39:35.315Z,38.63
2023-02-09T15:41:04.386Z,39.97
2023-02-09T15:42:33.101Z,40.31
2023-02-09T15:43:53.999Z,40.09
2023-02-09T15:45:13.728Z,39.98
2023-02-09T15:46:34.263Z,39.82
2023-02-09T15:47:52.917Z,40.16
2023-02-09T15:48:54.356Z,39.79
2023-02-09T15:49:55.747Z,40.19
2023-02-09T15:50:58.556Z,39.84
2023-02-09T15:52:00.041Z,39.93
2023-02-09T15:53:04.792Z,40.25
2023-02-09T15:54:18.804Z,40.05
2023-02-09T15:55:22.890Z,40.35
2023-02-09T15:56:24.295Z,40.54
2023-02-09T15:57:26.188Z,41.13
2023-02-09T15:58:35.394Z,41.05
2023-02-09T15:59:36.918Z,41.62
2023-02-09T16:00:38.632Z,41.48
2023-02-09T16:01:40.230Z,41.46
2023-02-09T16:02:41.816Z,41.80
2023-02-09T16:03:43.633Z,41.22
2023-02-09T16:04:45.793Z,41.62
2023-02-09T16:05:55.377Z,42.17
2023-02-09T16:06:56.764Z,42.41
2023-02-09T16:07:58.697Z,42.47
2023-02-09T16:09:01.755Z,42.83
2023-02-09T16:10:04.601Z,43.00
2023-02-09T16:11:09.467Z,42.94
2023-02-09T16:12:11.796Z,42.78
2023-02-09T16:13:15.153Z,43.75
2023-02-09T16:14:21.753Z,44.36
2023-02-09T16:15:25.748Z,44.91
2023-02-09T16:16:28.204Z,45.09
2023-02-09T16:17:29.660Z,45.46
2023-02-09T16:18:31.051Z,45.66
2023-02-09T16:19:32.485Z,45.18
2023-02-09T16:20:34.049Z,45.86
2023-02-09T16:21:35.884Z,46.69
2023-02-09T16:22:39.445Z,46.66
2023-02-09T16:23:41.051Z,47.58
2023-02-09T16:24:45.551Z,47.77
2023-02-09T16:25:48.856Z,48.25
2023-02-09T16:26:50.459Z,48.38
